Moody Air Force Base
KVAD : now visible

Airfield :











YOU CAN JOIN US ON...

 
LOGIN :

Register | Disclaimer

   EN    FR    IT 

 









Legend :    VFR   Marginal VFR   IFR   Intensive IFR   Very Intensive IFR
Visi :
Ceiling :
>= 8 km
>= 3000ft
5 to 8 km
1000 to 3000 ft
1500m to 5 km
500 to 1000 ft
800 to 1500m
200 to 500 ft
< 800m
< 200 ft
Symbols :   Thunderstorms  Fog  Heavy snow  Heavy precipitations  Wind > 20 kt






- Airport Elevation : 233 ft


KVAD - Moody Air Force Base

CURRENT METAR :
  • 152356Z 09005KT 10SM FEW006 BKN060 OVC075 22/22 A2995 RMK AO2A RAE38 SLP143 P0008 60017 T02190219 10247 20219 55005 $

EXPIRED METARs :
  • 152339Z 08004KT 10SM FEW007 SCT020 BKN060 22/22 A2995 RMK AO2A RAE38 SLP143 $
  • 152328Z 09004KT 9SM -RA SCT013 BKN060 22/22 A2996 RMK AO2A SLP146 $
  • 152304Z 13003KT 3SM -RA BR BKN011 22/22 A2996 RMK AO2A SLP146 $
  • 152256Z 15003KT 3SM RA BR SCT007 BKN020 OVC060 22/22 A2996 RMK AO2A RAE27RAB46 SLP146 P0007 T02210221 $
  • 152228Z 07004KT 10SM SCT010 BKN060 22/22 A2995 RMK RAE27 SLP143 $
  • 152221Z 08005KT 7SM -RA FEW008 SCT010 BKN070 22/22 A2995 RMK AO2A SLP143 $
  • 152156Z 09004KT 9SM -RA FEW011 BKN070 23/23 A2996 RMK AO2A RAB39 SLP146 P0001 T02260226 $
  • 152139Z 08004KT 10SM -RA FEW010 BKN070 23/23 A2996 RMK AO2A RAB39 SLP146 $
  • 152108Z 05004KT 10SM SCT013 BKN060 23/23 A2996 RMK AO2A SLP146 $

TAF TAF KVAD
Valid from the 16 at 00:00 until the 17 at 06:00 UTC


160000Z 1600/1706 14006KT 8000 -SHRA BKN015 OVC100 611409 QNH2990INS
TEMPO 1601/1604 26015G25KT 4800 -TSRA BKN020CB
BECMG 1605/1606 22006KT 8000 -SHRA VCTS BKN009 BKN015CB BKN120 QNH2985INS
BECMG 1609/1610 22006KT 8000 -SHRA BKN009 BKN070 QNH2987INS
TEMPO 1612/1615 26015G25KT 4800 -TSRA BKN020CB
BECMG 1614/1615 28010G15KT 8000 -SHRA BKN015 OVC100 QNH2983INS
BECMG 1623/1624 30009KT 9999 NSW SCT015 BKN100 QNH2983INS TX26/1618Z TN21/1606Z



MET'MAP, your aeronautical weather chart ! - Copyright ORBIFLY December 2007 - Disclaimer

ORBIFLY MET'MAP TEAM :

Programming & Development : Alexandra Zaïnal
Concept & Development : Baudouin d'Aumeries
Co-Development & Prog : Marc-Olivier Méhu
Technical & hardware support : Manuel Goepfert

Contact : metmap@orbifly.com




SOURCES & CREDITS :

   NOAA       Earth
Advisory